createdAt,value
2018-09-29T00:00:13.599Z,48.40
2018-09-29T00:02:41.255Z,48.30
2018-09-29T00:05:08.870Z,48.40
2018-09-29T00:07:36.487Z,48.30
2018-09-29T00:10:04.222Z,48.20
2018-09-29T00:12:31.810Z,48.20
2018-09-29T00:14:59.431Z,48.30
2018-09-29T00:17:27.025Z,48.20
2018-09-29T00:19:54.616Z,48.20
2018-09-29T00:22:22.217Z,48.20
2018-09-29T00:24:49.808Z,48.10
2018-09-29T00:27:17.411Z,48.10
2018-09-29T00:29:45.006Z,48.10
2018-09-29T00:32:12.605Z,48.10
2018-09-29T00:34:40.215Z,48.00
2018-09-29T00:37:07.824Z,48.00
2018-09-29T00:39:35.440Z,48.00
2018-09-29T00:42:03.052Z,48.00
2018-09-29T00:44:30.650Z,48.00
2018-09-29T00:46:58.243Z,48.00
2018-09-29T00:49:25.857Z,48.00
2018-09-29T00:51:53.469Z,48.00
2018-09-29T00:54:21.077Z,48.00
2018-09-29T00:56:48.707Z,47.90
2018-09-29T00:59:16.334Z,47.90
2018-09-29T01:01:43.976Z,47.80
2018-09-29T01:04:12.096Z,47.80
2018-09-29T01:06:39.743Z,47.80
2018-09-29T01:09:07.412Z,47.80
2018-09-29T01:11:35.041Z,47.80
2018-09-29T01:14:02.671Z,47.80
2018-09-29T01:16:30.307Z,47.70
2018-09-29T01:18:57.920Z,47.70
2018-09-29T01:21:25.571Z,47.70
2018-09-29T01:23:53.206Z,47.60
2018-09-29T01:26:20.917Z,47.60
2018-09-29T01:28:48.552Z,47.60
2018-09-29T01:31:16.197Z,47.60
2018-09-29T01:33:43.808Z,47.50
2018-09-29T01:36:11.596Z,47.50
2018-09-29T01:38:39.193Z,47.50
2018-09-29T01:41:06.833Z,47.50
2018-09-29T01:43:34.449Z,47.50
2018-09-29T01:46:02.190Z,47.50
2018-09-29T01:48:29.845Z,47.50
2018-09-29T01:50:57.461Z,47.50
2018-09-29T01:53:25.067Z,47.50
2018-09-29T01:55:52.688Z,47.50
2018-09-29T01:58:20.365Z,47.50
2018-09-29T02:00:47.983Z,47.50
2018-09-29T02:03:15.632Z,47.50
2018-09-29T02:05:43.461Z,47.50
2018-09-29T02:08:11.084Z,47.50
2018-09-29T02:10:38.704Z,47.50
2018-09-29T02:13:06.306Z,47.40
2018-09-29T02:15:34.481Z,47.40
2018-09-29T02:18:02.118Z,47.40
2018-09-29T02:20:30.089Z,47.30
2018-09-29T02:22:57.855Z,47.40
2018-09-29T02:25:25.673Z,47.40
2018-09-29T02:27:53.305Z,47.20
2018-09-29T02:30:21.393Z,47.30
2018-09-29T02:32:49.022Z,47.20
2018-09-29T02:35:16.655Z,47.20
2018-09-29T02:37:44.388Z,47.10
2018-09-29T02:40:12.173Z,47.10
2018-09-29T02:42:39.824Z,47.20
2018-09-29T02:45:07.658Z,47.70
2018-09-29T02:47:36.391Z,47.10
2018-09-29T02:50:04.076Z,47.00
2018-09-29T02:52:31.705Z,47.00
2018-09-29T02:54:59.335Z,47.40
2018-09-29T02:57:26.988Z,46.90
2018-09-29T02:59:54.609Z,46.80
2018-09-29T03:02:22.273Z,46.80
2018-09-29T03:04:49.893Z,46.80
2018-09-29T03:07:17.613Z,46.80
2018-09-29T03:09:45.304Z,46.70
2018-09-29T03:12:12.921Z,46.70
2018-09-29T03:14:40.557Z,46.70
2018-09-29T03:17:08.173Z,46.70
2018-09-29T03:19:35.993Z,46.70
2018-09-29T03:22:03.701Z,46.70
2018-09-29T03:24:31.337Z,46.80
2018-09-29T03:26:58.999Z,46.70
2018-09-29T03:29:26.627Z,46.70
2018-09-29T03:31:54.341Z,46.70
2018-09-29T03:34:21.868Z,46.70
2018-09-29T03:36:49.479Z,46.70
2018-09-29T03:39:17.097Z,46.60
2018-09-29T03:41:44.695Z,46.60
2018-09-29T03:44:12.296Z,46.60
2018-09-29T03:46:39.909Z,46.60
2018-09-29T03:49:07.550Z,46.60
2018-09-29T03:51:35.180Z,46.60
2018-09-29T03:54:02.818Z,46.60
2018-09-29T03:56:30.451Z,46.60
2018-09-29T03:58:58.093Z,46.60
2018-09-29T04:01:25.720Z,46.60
2018-09-29T04:03:53.447Z,46.60
2018-09-29T04:06:21.178Z,46.60
2018-09-29T04:08:48.823Z,46.60
2018-09-29T04:11:16.617Z,46.60
2018-09-29T04:13:44.478Z,46.60
2018-09-29T04:16:12.084Z,46.60
2018-09-29T04:18:39.723Z,46.60
2018-09-29T04:21:07.541Z,46.60
2018-09-29T04:23:35.190Z,46.60
2018-09-29T04:26:02.880Z,46.50
2018-09-29T04:28:31.596Z,46.50
2018-09-29T04:30:59.617Z,46.50
2018-09-29T04:33:27.318Z,46.40
2018-09-29T04:35:54.971Z,46.40
2018-09-29T04:38:22.595Z,46.40
2018-09-29T04:40:50.240Z,46.40
2018-09-29T04:43:18.097Z,46.30
2018-09-29T04:45:45.616Z,46.30
2018-09-29T04:48:13.241Z,46.50
2018-09-29T04:50:40.866Z,46.20
2018-09-29T04:53:08.503Z,46.30
2018-09-29T04:55:36.333Z,46.20
2018-09-29T04:58:04.019Z,46.20
2018-09-29T05:00:31.672Z,46.20
2018-09-29T05:02:59.371Z,46.20
2018-09-29T05:05:27.219Z,46.20
2018-09-29T05:07:55.080Z,46.20
2018-09-29T05:10:22.707Z,46.20
2018-09-29T05:12:50.393Z,46.20
2018-09-29T05:15:18.165Z,46.20
2018-09-29T05:17:45.980Z,46.20
2018-09-29T05:20:13.635Z,46.10
2018-09-29T05:22:41.258Z,46.20
2018-09-29T05:25:09.052Z,46.10
2018-09-29T05:27:36.671Z,46.20
2018-09-29T05:30:04.371Z,46.10
2018-09-29T05:32:32.088Z,46.10
2018-09-29T05:34:59.713Z,46.10
2018-09-29T05:37:27.354Z,46.20
2018-09-29T05:39:55.591Z,46.20
2018-09-29T05:42:23.521Z,45.60
2018-09-29T05:44:51.257Z,46.10
2018-09-29T05:47:18.884Z,46.20
2018-09-29T05:49:46.514Z,46.20
2018-09-29T05:52:14.115Z,46.60
2018-09-29T05:54:41.759Z,46.40
2018-09-29T05:57:09.358Z,46.30
2018-09-29T05:59:37.233Z,46.40
2018-09-29T06:02:04.865Z,46.30
2018-09-29T06:04:32.891Z,46.30
2018-09-29T06:07:01.310Z,46.30
2018-09-29T06:09:29.505Z,46.20
2018-09-29T06:11:58.070Z,46.20
2018-09-29T06:14:27.745Z,46.30
2018-09-29T06:16:55.862Z,46.30
2018-09-29T06:19:23.707Z,46.20
2018-09-29T06:21:51.498Z,46.50
2018-09-29T06:24:21.777Z,47.20
2018-09-29T06:26:49.823Z,46.70
2018-09-29T06:29:17.781Z,46.50
2018-09-29T06:31:45.778Z,46.60
2018-09-29T06:34:14.033Z,46.50
2018-09-29T06:36:41.842Z,46.50
2018-09-29T06:39:10.823Z,46.50
2018-09-29T06:41:38.620Z,46.50
2018-09-29T06:44:06.289Z,46.50
2018-09-29T06:46:34.067Z,46.00
2018-09-29T06:49:01.708Z,47.10
2018-09-29T06:51:29.322Z,46.50
2018-09-29T06:53:57.000Z,46.50
2018-09-29T06:56:24.659Z,46.50
2018-09-29T06:58:52.291Z,46.50
2018-09-29T07:01:19.955Z,46.50
2018-09-29T07:03:47.689Z,46.50
2018-09-29T07:06:15.314Z,46.50
2018-09-29T07:08:42.946Z,46.50
2018-09-29T07:11:10.585Z,46.50
2018-09-29T07:13:38.206Z,46.50
2018-09-29T07:16:05.836Z,46.50
2018-09-29T07:18:33.618Z,46.50
2018-09-29T07:21:01.407Z,46.50
2018-09-29T07:23:29.068Z,46.50
2018-09-29T07:25:56.688Z,46.50
2018-09-29T07:28:24.319Z,46.50
2018-09-29T07:30:51.929Z,46.40
2018-09-29T07:33:19.635Z,46.40
2018-09-29T07:35:47.378Z,46.50
2018-09-29T07:38:15.341Z,46.60
2018-09-29T07:40:42.972Z,46.50
2018-09-29T07:43:10.607Z,46.60
2018-09-29T07:45:38.244Z,46.40
2018-09-29T07:48:05.982Z,46.30
2018-09-29T07:50:33.631Z,46.20
2018-09-29T07:53:02.737Z,46.20
2018-09-29T07:55:30.414Z,46.10
2018-09-29T07:57:58.023Z,46.10
2018-09-29T08:00:25.660Z,46.00
2018-09-29T08:02:53.277Z,45.90
2018-09-29T08:05:21.299Z,45.90
2018-09-29T08:07:48.968Z,45.90
2018-09-29T08:10:17.086Z,45.90
2018-09-29T08:12:44.821Z,45.90
2018-09-29T08:15:12.441Z,45.90
2018-09-29T08:17:40.087Z,45.80
2018-09-29T08:20:07.828Z,45.90
2018-09-29T08:22:35.497Z,46.10
2018-09-29T08:25:03.120Z,46.00
2018-09-29T08:27:30.914Z,46.20
2018-09-29T08:29:58.619Z,46.60
2018-09-29T08:32:26.298Z,46.60
2018-09-29T08:34:54.128Z,46.60
2018-09-29T08:37:21.850Z,46.60
2018-09-29T08:39:49.488Z,46.80
2018-09-29T08:42:20.537Z,47.00
2018-09-29T08:44:48.390Z,46.90
2018-09-29T08:47:16.017Z,47.10
2018-09-29T08:49:43.784Z,47.40
2018-09-29T08:52:11.436Z,47.70
2018-09-29T08:54:39.689Z,48.00
2018-09-29T08:57:07.371Z,47.90
2018-09-29T08:59:35.108Z,48.20
2018-09-29T09:02:02.753Z,48.30
2018-09-29T09:04:30.399Z,47.90
2018-09-29T09:06:58.016Z,48.40
2018-09-29T09:09:25.985Z,48.60
2018-09-29T09:11:53.651Z,48.90
2018-09-29T09:14:21.357Z,48.60
2018-09-29T09:16:49.108Z,48.50
2018-09-29T09:19:16.763Z,48.40
2018-09-29T09:21:44.397Z,47.70
2018-09-29T09:24:12.155Z,47.70
2018-09-29T09:26:39.792Z,47.80
2018-09-29T09:29:07.530Z,48.20
2018-09-29T09:31:35.193Z,47.00
2018-09-29T09:34:02.931Z,46.80
2018-09-29T09:36:30.697Z,47.20
2018-09-29T09:38:58.374Z,47.20
2018-09-29T09:41:26.019Z,47.20
2018-09-29T09:43:53.661Z,47.40
2018-09-29T09:46:21.286Z,47.40
2018-09-29T09:48:48.946Z,47.40
2018-09-29T09:51:16.589Z,47.50
2018-09-29T09:53:44.207Z,47.60
2018-09-29T09:56:13.329Z,47.70
2018-09-29T09:58:41.005Z,47.40
2018-09-29T10:01:14.023Z,47.50
2018-09-29T10:03:41.769Z,47.50
2018-09-29T10:06:09.643Z,47.60
2018-09-29T10:08:37.320Z,47.60
2018-09-29T10:11:04.974Z,47.50
2018-09-29T10:13:32.595Z,47.40
2018-09-29T10:16:00.223Z,47.10
2018-09-29T10:18:27.983Z,46.60
2018-09-29T10:20:55.663Z,46.10
2018-09-29T10:23:23.444Z,45.60
2018-09-29T10:25:51.059Z,45.40
2018-09-29T10:28:18.672Z,45.10
2018-09-29T10:30:46.287Z,45.50
2018-09-29T10:33:13.903Z,45.70
2018-09-29T10:35:41.520Z,45.10
2018-09-29T10:38:09.121Z,44.90
2018-09-29T10:40:36.749Z,44.90
2018-09-29T10:43:04.387Z,44.60
2018-09-29T10:45:32.049Z,44.40
2018-09-29T10:47:59.720Z,44.30
2018-09-29T10:50:27.629Z,44.80
2018-09-29T10:52:55.252Z,44.90
2018-09-29T10:55:22.954Z,45.00
2018-09-29T10:57:50.716Z,45.20
2018-09-29T11:00:18.348Z,45.30
2018-09-29T11:02:46.103Z,45.40
2018-09-29T11:05:13.755Z,45.50
2018-09-29T11:07:41.439Z,45.60
2018-09-29T11:10:09.133Z,45.70
2018-09-29T11:12:36.709Z,45.70
2018-09-29T11:15:04.331Z,45.80
2018-09-29T11:17:31.985Z,45.90
2018-09-29T11:19:59.657Z,45.90
2018-09-29T11:22:27.264Z,45.90
2018-09-29T11:24:54.885Z,46.00
2018-09-29T11:27:22.526Z,46.00
2018-09-29T11:29:50.172Z,46.10
2018-09-29T11:32:17.802Z,46.10
2018-09-29T11:34:45.433Z,46.10
2018-09-29T11:37:13.216Z,46.10
2018-09-29T11:39:40.876Z,46.80
2018-09-29T11:42:08.525Z,46.10
2018-09-29T11:44:36.282Z,46.20
2018-09-29T11:47:04.077Z,46.20
2018-09-29T11:49:31.719Z,46.20
2018-09-29T11:51:59.706Z,46.20
2018-09-29T11:54:27.316Z,46.20
2018-09-29T11:56:54.950Z,46.20
2018-09-29T11:59:22.626Z,46.20
2018-09-29T12:01:50.413Z,46.20
2018-09-29T12:04:18.139Z,46.20
2018-09-29T12:06:46.008Z,46.20
2018-09-29T12:09:14.165Z,46.10
2018-09-29T12:11:42.112Z,46.20
2018-09-29T12:14:09.856Z,46.10
2018-09-29T12:16:37.582Z,46.20
2018-09-29T12:19:05.874Z,46.10
2018-09-29T12:21:33.464Z,46.10
2018-09-29T12:24:01.025Z,46.10
2018-09-29T12:26:28.656Z,46.70
2018-09-29T12:28:56.285Z,46.20
2018-09-29T12:31:24.042Z,46.10
2018-09-29T12:33:52.135Z,46.00
2018-09-29T12:36:19.735Z,45.90
2018-09-29T12:38:47.418Z,45.90
2018-09-29T12:41:15.072Z,45.80
2018-09-29T12:43:43.043Z,45.90
2018-09-29T12:46:10.658Z,45.90
2018-09-29T12:48:38.469Z,45.90
2018-09-29T12:51:06.150Z,45.90
2018-09-29T12:53:34.000Z,45.90
2018-09-29T12:56:01.722Z,45.90
2018-09-29T12:58:29.338Z,45.90
2018-09-29T13:00:57.013Z,45.90
2018-09-29T13:03:24.635Z,45.90
2018-09-29T13:05:52.616Z,45.90
2018-09-29T13:08:20.307Z,45.90
2018-09-29T13:10:47.882Z,45.80
2018-09-29T13:13:15.520Z,45.90
2018-09-29T13:15:43.264Z,45.80
2018-09-29T13:18:10.910Z,45.90
2018-09-29T13:20:38.531Z,46.10
2018-09-29T13:23:06.380Z,45.80
2018-09-29T13:25:34.021Z,45.80
2018-09-29T13:28:01.648Z,45.80
2018-09-29T13:30:29.316Z,45.80
2018-09-29T13:32:56.953Z,45.90
2018-09-29T13:35:24.715Z,45.80
2018-09-29T13:37:52.573Z,45.80
2018-09-29T13:40:20.228Z,45.80
2018-09-29T13:42:47.871Z,45.80
2018-09-29T13:45:15.522Z,45.80
2018-09-29T13:47:43.212Z,45.80
2018-09-29T13:50:11.614Z,45.80
2018-09-29T13:52:39.613Z,45.80
2018-09-29T13:55:07.254Z,45.80
2018-09-29T13:57:34.904Z,45.90
2018-09-29T14:00:02.570Z,45.80
2018-09-29T14:02:30.201Z,45.80
2018-09-29T14:04:57.829Z,45.80
2018-09-29T14:07:25.549Z,45.70
2018-09-29T14:09:53.176Z,45.70
2018-09-29T14:12:22.743Z,45.70
2018-09-29T14:14:50.364Z,45.70
2018-09-29T14:17:17.985Z,45.70
2018-09-29T14:19:45.789Z,45.70
2018-09-29T14:22:13.443Z,45.60
2018-09-29T14:24:41.073Z,45.60
2018-09-29T14:27:08.908Z,46.20
2018-09-29T14:29:37.194Z,45.60
2018-09-29T14:32:04.957Z,45.50
2018-09-29T14:34:32.566Z,45.50
2018-09-29T14:37:00.237Z,46.10
2018-09-29T14:39:27.987Z,45.50
2018-09-29T14:41:55.648Z,45.50
2018-09-29T14:44:23.292Z,45.50
2018-09-29T14:46:50.901Z,45.40
2018-09-29T14:49:18.651Z,45.50
2018-09-29T14:51:46.304Z,45.60
2018-09-29T14:54:14.151Z,45.50
2018-09-29T14:56:41.768Z,45.50
2018-09-29T14:59:09.380Z,45.50
2018-09-29T15:01:36.983Z,45.50
2018-09-29T15:04:04.582Z,45.50
2018-09-29T15:06:32.172Z,45.40
2018-09-29T15:08:59.786Z,45.40
2018-09-29T15:11:27.436Z,45.50
2018-09-29T15:13:55.114Z,45.60
2018-09-29T15:16:22.722Z,45.70
2018-09-29T15:18:50.420Z,45.80
2018-09-29T15:21:18.035Z,45.80
2018-09-29T15:23:45.667Z,45.90
2018-09-29T15:26:13.411Z,45.90
2018-09-29T15:28:41.039Z,46.00
2018-09-29T15:31:08.656Z,46.00
2018-09-29T15:33:36.284Z,46.10
2018-09-29T15:36:03.897Z,46.10
2018-09-29T15:38:31.517Z,46.20
2018-09-29T15:40:59.217Z,46.20
2018-09-29T15:43:26.967Z,46.30
2018-09-29T15:45:54.604Z,46.30
2018-09-29T15:48:22.433Z,46.40
2018-09-29T15:50:50.055Z,46.50
2018-09-29T15:53:17.674Z,46.50
2018-09-29T15:55:45.432Z,46.60
2018-09-29T15:58:13.068Z,46.60
2018-09-29T16:00:40.668Z,46.60
2018-09-29T16:03:08.302Z,46.60
2018-09-29T16:05:35.912Z,46.60
2018-09-29T16:08:03.533Z,46.60
2018-09-29T16:10:31.171Z,46.60
2018-09-29T16:12:58.893Z,46.60
2018-09-29T16:15:26.504Z,46.70
2018-09-29T16:17:54.106Z,46.70
2018-09-29T16:20:21.759Z,46.80
2018-09-29T16:22:49.433Z,46.80
2018-09-29T16:25:17.165Z,46.90
2018-09-29T16:27:44.820Z,46.90
2018-09-29T16:30:12.443Z,46.90
2018-09-29T16:32:40.143Z,47.00
2018-09-29T16:35:07.897Z,47.00
2018-09-29T16:37:35.502Z,47.00
2018-09-29T16:40:03.161Z,47.00
2018-09-29T16:42:30.840Z,47.00
2018-09-29T16:44:58.466Z,47.00
2018-09-29T16:47:26.273Z,47.10
2018-09-29T16:49:53.958Z,47.00
2018-09-29T16:52:21.570Z,47.10
2018-09-29T16:54:49.242Z,47.10
2018-09-29T16:57:18.658Z,47.10
2018-09-29T16:59:47.482Z,47.20
2018-09-29T17:02:15.177Z,47.20
2018-09-29T17:04:42.957Z,47.30
2018-09-29T17:07:10.611Z,47.30
2018-09-29T17:09:38.262Z,47.30
2018-09-29T17:12:05.980Z,47.10
2018-09-29T17:14:33.745Z,47.10
2018-09-29T17:17:01.531Z,47.70
2018-09-29T17:19:29.296Z,46.90
2018-09-29T17:21:57.270Z,46.90
2018-09-29T17:24:24.860Z,46.80
2018-09-29T17:26:52.513Z,47.40
2018-09-29T17:29:20.163Z,46.70
2018-09-29T17:31:48.263Z,46.60
2018-09-29T17:34:16.226Z,46.60
2018-09-29T17:36:44.126Z,46.60
2018-09-29T17:39:12.153Z,46.60
2018-09-29T17:41:40.389Z,46.60
2018-09-29T17:44:08.333Z,46.60
2018-09-29T17:46:37.151Z,46.50
2018-09-29T17:49:05.614Z,46.50
2018-09-29T17:51:33.338Z,46.50
2018-09-29T17:54:02.319Z,46.40
2018-09-29T17:56:30.228Z,46.40
2018-09-29T17:58:57.963Z,46.30
2018-09-29T18:01:25.961Z,46.30
2018-09-29T18:03:53.941Z,46.30
2018-09-29T18:06:21.743Z,46.20
2018-09-29T18:08:49.665Z,46.20
2018-09-29T18:11:17.369Z,46.20
2018-09-29T18:13:45.118Z,46.20
2018-09-29T18:16:12.905Z,46.10
2018-09-29T18:18:40.627Z,46.20
2018-09-29T18:21:08.753Z,46.10
2018-09-29T18:23:36.840Z,46.10
2018-09-29T18:26:04.635Z,46.10
2018-09-29T18:28:32.357Z,46.50
2018-09-29T18:31:00.231Z,46.00
2018-09-29T18:33:27.902Z,46.00
2018-09-29T18:35:55.827Z,46.00
2018-09-29T18:38:23.432Z,45.90
2018-09-29T18:40:51.139Z,46.00
2018-09-29T18:43:18.836Z,45.90
2018-09-29T18:45:46.528Z,45.90
2018-09-29T18:48:14.179Z,45.90
2018-09-29T18:50:41.864Z,46.00
2018-09-29T18:53:09.538Z,46.00
2018-09-29T18:55:37.220Z,46.50
2018-09-29T18:58:04.933Z,45.80
2018-09-29T19:00:32.762Z,46.00
2018-09-29T19:03:00.423Z,46.30
2018-09-29T19:05:28.274Z,46.60
2018-09-29T19:07:56.447Z,46.60
2018-09-29T19:10:24.465Z,46.90
2018-09-29T19:12:52.151Z,47.20
2018-09-29T19:15:19.839Z,47.50
2018-09-29T19:17:47.497Z,47.80
2018-09-29T19:20:15.397Z,48.00
2018-09-29T19:22:43.139Z,48.30
2018-09-29T19:25:10.788Z,48.60
2018-09-29T19:27:38.416Z,48.80
2018-09-29T19:30:06.100Z,49.10
2018-09-29T19:32:33.901Z,49.20
2018-09-29T19:35:01.558Z,49.50
2018-09-29T19:37:29.261Z,49.50
2018-09-29T19:39:56.915Z,49.80
2018-09-29T19:42:24.647Z,49.80
2018-09-29T19:44:52.300Z,49.80
2018-09-29T19:47:19.946Z,50.00
2018-09-29T19:49:48.708Z,50.20
2018-09-29T19:52:16.421Z,50.40
2018-09-29T19:54:44.166Z,50.60
2018-09-29T19:57:11.922Z,50.70
2018-09-29T19:59:39.699Z,50.90
2018-09-29T20:02:07.341Z,51.00
2018-09-29T20:04:35.109Z,51.10
2018-09-29T20:07:02.979Z,51.20
2018-09-29T20:09:30.622Z,51.30
2018-09-29T20:11:58.496Z,51.40
2018-09-29T20:14:26.117Z,51.50
2018-09-29T20:16:53.802Z,51.60
2018-09-29T20:19:21.481Z,51.60
2018-09-29T20:21:49.092Z,51.70
2018-09-29T20:24:16.944Z,51.80
2018-09-29T20:26:44.594Z,51.90
2018-09-29T20:29:12.194Z,52.00
2018-09-29T20:31:39.868Z,52.00
2018-09-29T20:34:15.710Z,52.10
2018-09-29T20:36:43.398Z,52.20
2018-09-29T20:39:12.979Z,52.20
2018-09-29T20:41:40.861Z,52.20
2018-09-29T20:44:08.846Z,52.30
2018-09-29T20:46:36.684Z,52.30
2018-09-29T20:49:04.417Z,52.30
2018-09-29T20:51:32.506Z,52.30
2018-09-29T20:54:00.155Z,52.30
2018-09-29T20:56:27.772Z,52.30
2018-09-29T20:58:55.403Z,52.40
2018-09-29T21:01:23.040Z,52.40
2018-09-29T21:03:51.246Z,52.50
2018-09-29T21:06:18.996Z,52.70
2018-09-29T21:08:46.661Z,52.50
2018-09-29T21:11:14.467Z,52.50
2018-09-29T21:13:42.341Z,52.60
2018-09-29T21:16:10.121Z,52.60
2018-09-29T21:18:37.974Z,52.70
2018-09-29T21:21:05.615Z,52.80
2018-09-29T21:23:33.325Z,52.80
2018-09-29T21:26:02.163Z,52.90
2018-09-29T21:28:29.893Z,52.90
2018-09-29T21:30:57.560Z,52.90
2018-09-29T21:33:25.223Z,53.00
2018-09-29T21:35:52.875Z,53.10
2018-09-29T21:38:20.600Z,53.10
2018-09-29T21:40:48.260Z,53.10
2018-09-29T21:43:15.926Z,53.00
2018-09-29T21:45:43.559Z,53.10
2018-09-29T21:48:11.363Z,53.10
2018-09-29T21:50:39.042Z,53.10
2018-09-29T21:53:06.703Z,53.10
2018-09-29T21:55:34.352Z,53.10
2018-09-29T21:58:02.083Z,53.10
2018-09-29T22:00:35.207Z,53.10
2018-09-29T22:03:02.848Z,53.00
2018-09-29T22:05:30.520Z,53.10
2018-09-29T22:07:58.208Z,53.10
2018-09-29T22:10:25.954Z,53.00
2018-09-29T22:12:53.589Z,52.90
2018-09-29T22:15:21.221Z,52.90
2018-09-29T22:17:48.937Z,52.90
2018-09-29T22:20:16.570Z,53.00
2018-09-29T22:22:44.201Z,52.90
2018-09-29T22:25:11.831Z,52.90
2018-09-29T22:27:39.473Z,52.90
2018-09-29T22:30:07.425Z,52.90
2018-09-29T22:32:35.143Z,52.80
2018-09-29T22:35:02.764Z,52.80
2018-09-29T22:37:30.469Z,53.50
2018-09-29T22:39:58.115Z,52.90
2018-09-29T22:42:25.753Z,52.80
2018-09-29T22:44:53.396Z,52.80
2018-09-29T22:47:21.080Z,52.80
2018-09-29T22:49:48.703Z,52.70
2018-09-29T22:52:16.408Z,53.40
2018-09-29T22:54:44.252Z,52.80
2018-09-29T22:57:11.874Z,52.70
2018-09-29T22:59:39.486Z,52.70
2018-09-29T23:02:07.273Z,52.40
2018-09-29T23:04:34.913Z,52.60
2018-09-29T23:07:02.595Z,52.60
2018-09-29T23:09:30.313Z,52.60
2018-09-29T23:11:57.942Z,52.50
2018-09-29T23:14:25.571Z,52.50
2018-09-29T23:16:53.211Z,52.60
2018-09-29T23:19:20.867Z,52.50
2018-09-29T23:21:48.488Z,52.50
2018-09-29T23:24:16.106Z,52.50
2018-09-29T23:26:43.751Z,52.40
2018-09-29T23:29:11.363Z,52.40
2018-09-29T23:31:39.014Z,52.40
2018-09-29T23:34:06.632Z,52.30
2018-09-29T23:36:34.342Z,52.30
2018-09-29T23:39:01.950Z,52.30
2018-09-29T23:41:29.735Z,52.20
2018-09-29T23:43:57.369Z,52.20
2018-09-29T23:46:25.018Z,52.20
2018-09-29T23:48:52.633Z,52.20
2018-09-29T23:51:20.292Z,52.20
2018-09-29T23:53:47.930Z,52.20
2018-09-29T23:56:15.577Z,52.10
2018-09-29T23:58:43.185Z,52.20
